Portada
METAR-TAF:

METAR-TAF

Aeroports :

Pocono Mountains Municipal Airport

Mount Pocono, Pennsilvània, Estats Units d'Amèrica

latitud: 41-08-20N, longitud: 075-23-46W, altitud: 584 m

Observació

L'informe es va fer fa 58 minuts, a les 22:53 UTC
Vent 3 kt del Nord
Temperatura -1°C
Humitat 69%
Pressió 1026 hPa
Visibilitat: 16.1 km
Cel clar

METAR: KMPO 242253Z AUTO 01003KT 10SM CLR M01/M06 A3031 RMK AO2 SLP287 T10111056

Hora: 18:51 (23:51 UTC)


TAF: manca

Observacions i pronòstics meteorològics de més de 4000 aeroports (METAR i TAF).

Les estacions disponibles són els punts grocs i vermells al mapa.

Posi el ratolí al punt desitjat per veure el nom de l'estació.

Feu clic per veure les observacions i els pronòstics meteorològics.

Per canviar el mapa: feu clic els botons verds amb una creu de color negre per apropar; al botó verd amb un guió per allunyar la imatge; o en les fletxes verdes per a mapes adjacents.


METAR-TAF: